Vernon, Texas
Current Conditions -  °F | °C
As of 8:36 AM on Sunday 23 Nov 2014 (Local Time) from KF05 Reporting Station
Clear Clear  
Wind Chill: 11°   Ceiling: Unl
Heat Index: 11°   Visibility: 10mi
Dew Point:   Wind: 10mph
Humidity: 88%   Direction: 230°SW
Pressure: 29.45"   Gusts: NA
Location:  34.15°N, 99.28°W
Report Text: KF05 231436Z AUTO 23009KT 10SM CLR 11/09 A2945 RMK AO2
Loading
Personal Weather Stations






























Interactive Weather Map New forecast layout! Learn more

10-Day Weather Forecast

Advertisements
Track Severe Weather on mobile